sensor_id;sensor_type;location;lat;lon;timestamp;temperature;humidity
8420;DHT22;4247;48.550;8.822;2023-03-01T00:00:44;-0.90;99.90
8420;DHT22;4247;48.550;8.822;2023-03-01T00:03:12;-0.90;99.90
8420;DHT22;4247;48.550;8.822;2023-03-01T00:05:44;-0.90;99.90
8420;DHT22;4247;48.550;8.822;2023-03-01T00:08:11;-0.90;99.90
8420;DHT22;4247;48.550;8.822;2023-03-01T00:10:39;-1.00;99.90
8420;DHT22;4247;48.550;8.822;2023-03-01T00:13:05;-1.00;99.90
8420;DHT22;4247;48.550;8.822;2023-03-01T00:15:32;-1.00;99.90
8420;DHT22;4247;48.550;8.822;2023-03-01T00:18:00;-1.00;99.90
8420;DHT22;4247;48.550;8.822;2023-03-01T00:20:27;-1.00;99.90
8420;DHT22;4247;48.550;8.822;2023-03-01T00:22:53;-1.00;99.90
8420;DHT22;4247;48.550;8.822;2023-03-01T00:25:20;-1.00;99.90
8420;DHT22;4247;48.550;8.822;2023-03-01T00:27:48;-1.00;99.90
8420;DHT22;4247;48.550;8.822;2023-03-01T00:30:15;-1.10;99.90
8420;DHT22;4247;48.550;8.822;2023-03-01T00:32:42;-1.00;99.90
8420;DHT22;4247;48.550;8.822;2023-03-01T00:35:09;-1.10;99.90
8420;DHT22;4247;48.550;8.822;2023-03-01T00:37:35;-1.10;99.90
8420;DHT22;4247;48.550;8.822;2023-03-01T00:40:02;-1.10;99.90
8420;DHT22;4247;48.550;8.822;2023-03-01T00:42:31;-1.10;99.90
8420;DHT22;4247;48.550;8.822;2023-03-01T00:44:59;-1.20;99.90
8420;DHT22;4247;48.550;8.822;2023-03-01T00:47:28;-1.20;99.90
8420;DHT22;4247;48.550;8.822;2023-03-01T00:49:55;-1.20;99.90
8420;DHT22;4247;48.550;8.822;2023-03-01T00:52:22;-1.20;99.90
8420;DHT22;4247;48.550;8.822;2023-03-01T00:54:52;-1.20;99.90
8420;DHT22;4247;48.550;8.822;2023-03-01T00:57:19;-1.20;99.90
8420;DHT22;4247;48.550;8.822;2023-03-01T00:59:46;-1.20;99.90
8420;DHT22;4247;48.550;8.822;2023-03-01T01:02:14;-1.30;99.90
8420;DHT22;4247;48.550;8.822;2023-03-01T01:04:41;-1.30;99.90
8420;DHT22;4247;48.550;8.822;2023-03-01T01:07:08;-1.30;99.90
8420;DHT22;4247;48.550;8.822;2023-03-01T01:09:35;-1.30;99.90
8420;DHT22;4247;48.550;8.822;2023-03-01T01:12:02;-1.30;99.90
8420;DHT22;4247;48.550;8.822;2023-03-01T01:14:29;-1.30;99.90
8420;DHT22;4247;48.550;8.822;2023-03-01T01:16:56;-1.30;99.90
8420;DHT22;4247;48.550;8.822;2023-03-01T01:19:25;-1.30;99.90
8420;DHT22;4247;48.550;8.822;2023-03-01T01:21:52;-1.40;99.90
8420;DHT22;4247;48.550;8.822;2023-03-01T01:24:19;-1.40;99.90
8420;DHT22;4247;48.550;8.822;2023-03-01T01:26:46;-1.40;99.90
8420;DHT22;4247;48.550;8.822;2023-03-01T01:29:13;-1.40;99.90
8420;DHT22;4247;48.550;8.822;2023-03-01T01:31:41;-1.40;99.90
8420;DHT22;4247;48.550;8.822;2023-03-01T01:34:13;-1.40;99.90
8420;DHT22;4247;48.550;8.822;2023-03-01T01:36:41;-1.50;99.90
8420;DHT22;4247;48.550;8.822;2023-03-01T01:39:08;-1.50;99.90
8420;DHT22;4247;48.550;8.822;2023-03-01T01:41:40;-1.50;99.90
8420;DHT22;4247;48.550;8.822;2023-03-01T01:44:14;-1.50;99.90
8420;DHT22;4247;48.550;8.822;2023-03-01T01:46:43;-1.50;99.90
8420;DHT22;4247;48.550;8.822;2023-03-01T01:49:17;-1.50;99.90
8420;DHT22;4247;48.550;8.822;2023-03-01T01:51:48;-1.50;99.90
8420;DHT22;4247;48.550;8.822;2023-03-01T01:54:22;-1.50;99.90
8420;DHT22;4247;48.550;8.822;2023-03-01T01:56:53;-1.50;99.90
8420;DHT22;4247;48.550;8.822;2023-03-01T01:59:21;-1.50;99.90
8420;DHT22;4247;48.550;8.822;2023-03-01T02:01:50;-1.60;99.90
8420;DHT22;4247;48.550;8.822;2023-03-01T02:04:17;-1.60;99.90
8420;DHT22;4247;48.550;8.822;2023-03-01T02:06:51;-1.60;99.90
8420;DHT22;4247;48.550;8.822;2023-03-01T02:09:20;-1.60;99.90
8420;DHT22;4247;48.550;8.822;2023-03-01T02:11:49;-1.60;99.90
8420;DHT22;4247;48.550;8.822;2023-03-01T02:14:16;-1.60;99.90
8420;DHT22;4247;48.550;8.822;2023-03-01T02:16:44;-1.60;99.90
8420;DHT22;4247;48.550;8.822;2023-03-01T02:19:16;-1.60;99.90
8420;DHT22;4247;48.550;8.822;2023-03-01T02:21:52;-1.60;99.90
8420;DHT22;4247;48.550;8.822;2023-03-01T02:24:28;-1.60;99.90
8420;DHT22;4247;48.550;8.822;2023-03-01T02:27:00;-1.60;99.90
8420;DHT22;4247;48.550;8.822;2023-03-01T02:29:28;-1.60;99.90
8420;DHT22;4247;48.550;8.822;2023-03-01T02:31:57;-1.60;99.90
8420;DHT22;4247;48.550;8.822;2023-03-01T02:34:25;-1.60;99.90
8420;DHT22;4247;48.550;8.822;2023-03-01T02:36:56;-1.60;99.90
8420;DHT22;4247;48.550;8.822;2023-03-01T02:39:26;-1.60;99.90
8420;DHT22;4247;48.550;8.822;2023-03-01T02:41:56;-1.50;99.90
8420;DHT22;4247;48.550;8.822;2023-03-01T02:44:23;-1.50;99.90
8420;DHT22;4247;48.550;8.822;2023-03-01T02:46:53;-1.40;99.90
8420;DHT22;4247;48.550;8.822;2023-03-01T02:49:23;-1.40;99.90
8420;DHT22;4247;48.550;8.822;2023-03-01T02:52:16;-1.40;99.90
8420;DHT22;4247;48.550;8.822;2023-03-01T02:54:47;-1.40;99.90
8420;DHT22;4247;48.550;8.822;2023-03-01T02:57:15;-1.40;99.90
8420;DHT22;4247;48.550;8.822;2023-03-01T02:59:42;-1.30;99.90
8420;DHT22;4247;48.550;8.822;2023-03-01T03:02:20;-1.30;99.90
8420;DHT22;4247;48.550;8.822;2023-03-01T03:05:02;-1.20;99.90
8420;DHT22;4247;48.550;8.822;2023-03-01T03:07:31;-1.20;99.90
8420;DHT22;4247;48.550;8.822;2023-03-01T03:09:58;-1.20;99.90
8420;DHT22;4247;48.550;8.822;2023-03-01T03:12:25;-1.20;99.90
8420;DHT22;4247;48.550;8.822;2023-03-01T03:14:51;-1.20;99.90
8420;DHT22;4247;48.550;8.822;2023-03-01T03:17:19;-1.20;99.90
8420;DHT22;4247;48.550;8.822;2023-03-01T03:19:46;-1.20;99.90
8420;DHT22;4247;48.550;8.822;2023-03-01T03:22:13;-1.20;99.90
8420;DHT22;4247;48.550;8.822;2023-03-01T03:24:40;-1.10;99.90
8420;DHT22;4247;48.550;8.822;2023-03-01T03:27:07;-1.10;99.90
8420;DHT22;4247;48.550;8.822;2023-03-01T03:29:34;-1.10;99.90
8420;DHT22;4247;48.550;8.822;2023-03-01T03:32:00;-1.10;99.90
8420;DHT22;4247;48.550;8.822;2023-03-01T03:34:30;-1.00;99.90
8420;DHT22;4247;48.550;8.822;2023-03-01T03:36:56;-1.00;99.90
8420;DHT22;4247;48.550;8.822;2023-03-01T03:39:25;-1.00;99.90
8420;DHT22;4247;48.550;8.822;2023-03-01T03:41:52;-1.00;99.90
8420;DHT22;4247;48.550;8.822;2023-03-01T03:44:20;-0.90;99.90
8420;DHT22;4247;48.550;8.822;2023-03-01T03:46:46;-0.90;99.90
8420;DHT22;4247;48.550;8.822;2023-03-01T03:49:13;-0.90;99.90
8420;DHT22;4247;48.550;8.822;2023-03-01T03:51:41;-1.00;99.90
8420;DHT22;4247;48.550;8.822;2023-03-01T03:54:08;-0.90;99.90
8420;DHT22;4247;48.550;8.822;2023-03-01T03:56:35;-0.90;99.90
8420;DHT22;4247;48.550;8.822;2023-03-01T03:59:02;-0.90;99.90
8420;DHT22;4247;48.550;8.822;2023-03-01T04:01:29;-0.90;99.90
8420;DHT22;4247;48.550;8.822;2023-03-01T04:03:55;-0.90;99.90
8420;DHT22;4247;48.550;8.822;2023-03-01T04:06:29;-0.90;99.90
8420;DHT22;4247;48.550;8.822;2023-03-01T04:08:57;-0.90;99.90
8420;DHT22;4247;48.550;8.822;2023-03-01T04:11:26;-0.90;99.90
8420;DHT22;4247;48.550;8.822;2023-03-01T04:13:54;-0.90;99.90
8420;DHT22;4247;48.550;8.822;2023-03-01T04:16:21;-0.90;99.90
8420;DHT22;4247;48.550;8.822;2023-03-01T04:18:48;-0.90;99.90
8420;DHT22;4247;48.550;8.822;2023-03-01T04:21:14;-0.90;99.90
8420;DHT22;4247;48.550;8.822;2023-03-01T04:23:41;-0.80;99.90
8420;DHT22;4247;48.550;8.822;2023-03-01T04:26:09;-0.80;99.90
8420;DHT22;4247;48.550;8.822;2023-03-01T04:28:38;-0.80;99.90
8420;DHT22;4247;48.550;8.822;2023-03-01T04:31:10;-0.80;99.90
8420;DHT22;4247;48.550;8.822;2023-03-01T04:33:42;-0.80;99.90
8420;DHT22;4247;48.550;8.822;2023-03-01T04:36:11;-0.80;99.90
8420;DHT22;4247;48.550;8.822;2023-03-01T04:38:38;-0.80;99.90
8420;DHT22;4247;48.550;8.822;2023-03-01T04:41:06;-0.80;99.90
8420;DHT22;4247;48.550;8.822;2023-03-01T04:43:34;-0.70;99.90
8420;DHT22;4247;48.550;8.822;2023-03-01T04:46:02;-0.70;99.90
8420;DHT22;4247;48.550;8.822;2023-03-01T04:48:30;-0.70;99.90
8420;DHT22;4247;48.550;8.822;2023-03-01T04:50:57;-0.70;99.90
8420;DHT22;4247;48.550;8.822;2023-03-01T04:53:24;-0.70;99.90
8420;DHT22;4247;48.550;8.822;2023-03-01T04:55:51;-0.70;99.90
8420;DHT22;4247;48.550;8.822;2023-03-01T04:58:17;-0.70;99.90
8420;DHT22;4247;48.550;8.822;2023-03-01T05:00:45;-0.70;99.90
8420;DHT22;4247;48.550;8.822;2023-03-01T05:03:12;-0.70;99.90
8420;DHT22;4247;48.550;8.822;2023-03-01T05:05:44;-0.70;99.90
8420;DHT22;4247;48.550;8.822;2023-03-01T05:08:12;-0.70;99.90
8420;DHT22;4247;48.550;8.822;2023-03-01T05:10:44;-0.60;99.90
8420;DHT22;4247;48.550;8.822;2023-03-01T05:13:11;-0.70;99.90
8420;DHT22;4247;48.550;8.822;2023-03-01T05:15:40;-0.60;99.90
8420;DHT22;4247;48.550;8.822;2023-03-01T05:18:08;-0.70;99.90
8420;DHT22;4247;48.550;8.822;2023-03-01T05:20:37;-0.70;99.90
8420;DHT22;4247;48.550;8.822;2023-03-01T05:23:05;-0.70;99.90
8420;DHT22;4247;48.550;8.822;2023-03-01T05:25:33;-0.60;99.90
8420;DHT22;4247;48.550;8.822;2023-03-01T05:28:00;-0.60;99.90
8420;DHT22;4247;48.550;8.822;2023-03-01T05:30:30;-0.60;99.90
8420;DHT22;4247;48.550;8.822;2023-03-01T05:32:58;-0.60;99.90
8420;DHT22;4247;48.550;8.822;2023-03-01T05:35:26;-0.50;99.90
8420;DHT22;4247;48.550;8.822;2023-03-01T05:37:53;-0.50;99.90
8420;DHT22;4247;48.550;8.822;2023-03-01T05:40:21;-0.50;99.90
8420;DHT22;4247;48.550;8.822;2023-03-01T05:42:52;-0.50;99.90
8420;DHT22;4247;48.550;8.822;2023-03-01T05:45:18;-0.40;99.90
8420;DHT22;4247;48.550;8.822;2023-03-01T05:47:47;-0.40;99.90
8420;DHT22;4247;48.550;8.822;2023-03-01T05:50:16;-0.40;99.90
8420;DHT22;4247;48.550;8.822;2023-03-01T05:52:46;-0.40;99.90
8420;DHT22;4247;48.550;8.822;2023-03-01T05:55:14;-0.40;99.90
8420;DHT22;4247;48.550;8.822;2023-03-01T05:57:40;-0.40;99.90
8420;DHT22;4247;48.550;8.822;2023-03-01T06:00:09;-0.40;99.90
8420;DHT22;4247;48.550;8.822;2023-03-01T06:02:36;-0.30;99.90
8420;DHT22;4247;48.550;8.822;2023-03-01T06:05:03;-0.30;99.90
8420;DHT22;4247;48.550;8.822;2023-03-01T06:07:31;-0.30;99.90
8420;DHT22;4247;48.550;8.822;2023-03-01T06:09:59;-0.30;99.90
8420;DHT22;4247;48.550;8.822;2023-03-01T06:12:26;-0.30;99.90
8420;DHT22;4247;48.550;8.822;2023-03-01T06:14:52;-0.20;99.90
8420;DHT22;4247;48.550;8.822;2023-03-01T06:17:19;-0.30;99.90
8420;DHT22;4247;48.550;8.822;2023-03-01T06:19:46;-0.30;99.90
8420;DHT22;4247;48.550;8.822;2023-03-01T06:22:13;-0.30;99.90
8420;DHT22;4247;48.550;8.822;2023-03-01T06:24:39;-0.30;99.90
8420;DHT22;4247;48.550;8.822;2023-03-01T06:27:07;-0.30;99.90
8420;DHT22;4247;48.550;8.822;2023-03-01T06:29:34;-0.30;99.90
8420;DHT22;4247;48.550;8.822;2023-03-01T06:32:01;-0.30;99.90
8420;DHT22;4247;48.550;8.822;2023-03-01T06:34:28;-0.20;99.90
8420;DHT22;4247;48.550;8.822;2023-03-01T06:36:55;-0.20;99.90
8420;DHT22;4247;48.550;8.822;2023-03-01T06:39:22;-0.20;99.90
8420;DHT22;4247;48.550;8.822;2023-03-01T06:41:48;-0.20;99.90
8420;DHT22;4247;48.550;8.822;2023-03-01T06:44:16;-0.20;99.90
8420;DHT22;4247;48.550;8.822;2023-03-01T06:46:43;-0.10;99.90
8420;DHT22;4247;48.550;8.822;2023-03-01T06:49:10;-0.10;99.90
8420;DHT22;4247;48.550;8.822;2023-03-01T06:51:36;0.00;99.90
8420;DHT22;4247;48.550;8.822;2023-03-01T06:54:04;0.00;99.90
8420;DHT22;4247;48.550;8.822;2023-03-01T06:56:30;0.10;99.90
8420;DHT22;4247;48.550;8.822;2023-03-01T06:58:57;0.10;99.90
8420;DHT22;4247;48.550;8.822;2023-03-01T07:01:25;0.20;99.90
8420;DHT22;4247;48.550;8.822;2023-03-01T07:03:52;0.20;99.90
8420;DHT22;4247;48.550;8.822;2023-03-01T07:06:19;0.30;99.90
8420;DHT22;4247;48.550;8.822;2023-03-01T07:08:45;0.30;99.90
8420;DHT22;4247;48.550;8.822;2023-03-01T07:11:12;0.30;99.90
8420;DHT22;4247;48.550;8.822;2023-03-01T07:13:39;0.30;99.90
8420;DHT22;4247;48.550;8.822;2023-03-01T07:16:07;0.20;99.90
8420;DHT22;4247;48.550;8.822;2023-03-01T07:18:35;0.20;99.90
8420;DHT22;4247;48.550;8.822;2023-03-01T07:21:04;0.20;99.90
8420;DHT22;4247;48.550;8.822;2023-03-01T07:23:33;0.20;99.90
8420;DHT22;4247;48.550;8.822;2023-03-01T07:26:00;0.20;99.90
8420;DHT22;4247;48.550;8.822;2023-03-01T07:28:27;0.10;99.90
8420;DHT22;4247;48.550;8.822;2023-03-01T07:30:54;0.10;99.90
8420;DHT22;4247;48.550;8.822;2023-03-01T07:33:21;0.10;99.90
8420;DHT22;4247;48.550;8.822;2023-03-01T07:35:56;0.10;99.90
8420;DHT22;4247;48.550;8.822;2023-03-01T07:38:23;0.10;99.90
8420;DHT22;4247;48.550;8.822;2023-03-01T07:40:49;0.10;99.90
8420;DHT22;4247;48.550;8.822;2023-03-01T07:43:16;0.00;99.90
8420;DHT22;4247;48.550;8.822;2023-03-01T07:45:43;0.10;99.90
8420;DHT22;4247;48.550;8.822;2023-03-01T07:48:10;0.10;99.90
8420;DHT22;4247;48.550;8.822;2023-03-01T07:50:36;0.10;99.90
8420;DHT22;4247;48.550;8.822;2023-03-01T07:53:04;0.10;99.90
8420;DHT22;4247;48.550;8.822;2023-03-01T07:55:31;0.10;99.90
8420;DHT22;4247;48.550;8.822;2023-03-01T07:57:58;0.10;99.90
8420;DHT22;4247;48.550;8.822;2023-03-01T08:00:24;0.20;99.90
8420;DHT22;4247;48.550;8.822;2023-03-01T08:02:51;0.20;99.90
8420;DHT22;4247;48.550;8.822;2023-03-01T08:05:18;0.10;99.90
8420;DHT22;4247;48.550;8.822;2023-03-01T08:07:45;0.20;99.90
8420;DHT22;4247;48.550;8.822;2023-03-01T08:10:13;0.20;99.90
8420;DHT22;4247;48.550;8.822;2023-03-01T08:12:39;0.20;99.90
8420;DHT22;4247;48.550;8.822;2023-03-01T08:15:07;0.30;99.90
8420;DHT22;4247;48.550;8.822;2023-03-01T08:17:34;0.30;99.90
8420;DHT22;4247;48.550;8.822;2023-03-01T08:20:01;0.40;99.90
8420;DHT22;4247;48.550;8.822;2023-03-01T08:22:28;0.40;99.90
8420;DHT22;4247;48.550;8.822;2023-03-01T08:24:55;0.40;99.90
8420;DHT22;4247;48.550;8.822;2023-03-01T08:27:23;0.40;99.90
8420;DHT22;4247;48.550;8.822;2023-03-01T08:29:50;0.50;99.90
8420;DHT22;4247;48.550;8.822;2023-03-01T08:32:16;0.60;99.90
8420;DHT22;4247;48.550;8.822;2023-03-01T08:34:46;0.60;99.90
8420;DHT22;4247;48.550;8.822;2023-03-01T08:37:12;0.70;99.90
8420;DHT22;4247;48.550;8.822;2023-03-01T08:39:39;0.80;99.90
8420;DHT22;4247;48.550;8.822;2023-03-01T08:42:14;0.80;99.90
8420;DHT22;4247;48.550;8.822;2023-03-01T08:44:40;0.90;99.90
8420;DHT22;4247;48.550;8.822;2023-03-01T08:47:07;1.00;99.90
8420;DHT22;4247;48.550;8.822;2023-03-01T08:49:34;1.00;99.90
8420;DHT22;4247;48.550;8.822;2023-03-01T08:52:02;1.00;99.90
8420;DHT22;4247;48.550;8.822;2023-03-01T08:54:28;1.10;99.90
8420;DHT22;4247;48.550;8.822;2023-03-01T08:56:55;1.20;99.90
8420;DHT22;4247;48.550;8.822;2023-03-01T08:59:26;1.30;99.90
8420;DHT22;4247;48.550;8.822;2023-03-01T09:01:53;1.40;99.90
8420;DHT22;4247;48.550;8.822;2023-03-01T09:04:20;1.50;99.90
8420;DHT22;4247;48.550;8.822;2023-03-01T09:06:47;1.60;99.90
8420;DHT22;4247;48.550;8.822;2023-03-01T09:09:15;1.70;99.90
8420;DHT22;4247;48.550;8.822;2023-03-01T09:11:42;1.70;99.90
8420;DHT22;4247;48.550;8.822;2023-03-01T09:14:11;1.70;99.90
8420;DHT22;4247;48.550;8.822;2023-03-01T09:16:39;1.70;99.90
8420;DHT22;4247;48.550;8.822;2023-03-01T09:19:06;1.80;99.90
8420;DHT22;4247;48.550;8.822;2023-03-01T09:21:33;1.80;99.90
8420;DHT22;4247;48.550;8.822;2023-03-01T09:23:59;1.80;99.90
8420;DHT22;4247;48.550;8.822;2023-03-01T09:26:26;1.80;99.90
8420;DHT22;4247;48.550;8.822;2023-03-01T09:28:55;1.90;99.90
8420;DHT22;4247;48.550;8.822;2023-03-01T09:31:23;1.90;99.90
8420;DHT22;4247;48.550;8.822;2023-03-01T09:33:52;1.90;99.90
8420;DHT22;4247;48.550;8.822;2023-03-01T09:36:21;2.00;99.90
8420;DHT22;4247;48.550;8.822;2023-03-01T09:38:49;2.00;99.90
8420;DHT22;4247;48.550;8.822;2023-03-01T09:41:38;2.00;99.90
8420;DHT22;4247;48.550;8.822;2023-03-01T09:44:15;2.00;99.90
8420;DHT22;4247;48.550;8.822;2023-03-01T09:46:45;2.10;99.90
8420;DHT22;4247;48.550;8.822;2023-03-01T09:49:16;2.10;99.90
8420;DHT22;4247;48.550;8.822;2023-03-01T09:51:53;2.10;99.90
8420;DHT22;4247;48.550;8.822;2023-03-01T09:54:20;2.10;99.90
8420;DHT22;4247;48.550;8.822;2023-03-01T09:59:44;2.20;99.90
8420;DHT22;4247;48.550;8.822;2023-03-01T10:02:26;2.30;99.90
8420;DHT22;4247;48.550;8.822;2023-03-01T10:05:06;2.20;99.90
8420;DHT22;4247;48.550;8.822;2023-03-01T10:07:41;2.20;99.90
8420;DHT22;4247;48.550;8.822;2023-03-01T10:10:20;2.20;99.90
8420;DHT22;4247;48.550;8.822;2023-03-01T10:12:48;2.20;99.90
8420;DHT22;4247;48.550;8.822;2023-03-01T10:15:18;2.20;99.90
8420;DHT22;4247;48.550;8.822;2023-03-01T10:17:50;2.30;99.90
8420;DHT22;4247;48.550;8.822;2023-03-01T10:20:23;2.30;99.90
8420;DHT22;4247;48.550;8.822;2023-03-01T10:22:51;2.30;99.90
8420;DHT22;4247;48.550;8.822;2023-03-01T10:25:27;2.50;99.90
8420;DHT22;4247;48.550;8.822;2023-03-01T10:28:01;2.50;99.90
8420;DHT22;4247;48.550;8.822;2023-03-01T10:30:34;2.60;99.90
8420;DHT22;4247;48.550;8.822;2023-03-01T10:33:07;2.70;99.90
8420;DHT22;4247;48.550;8.822;2023-03-01T10:35:38;2.70;99.90
8420;DHT22;4247;48.550;8.822;2023-03-01T10:38:08;2.60;99.90
8420;DHT22;4247;48.550;8.822;2023-03-01T10:40:37;2.70;99.90
8420;DHT22;4247;48.550;8.822;2023-03-01T10:43:15;2.70;99.90
8420;DHT22;4247;48.550;8.822;2023-03-01T10:45:42;2.80;99.90
8420;DHT22;4247;48.550;8.822;2023-03-01T10:48:12;2.80;99.90
8420;DHT22;4247;48.550;8.822;2023-03-01T10:50:42;2.90;99.90
8420;DHT22;4247;48.550;8.822;2023-03-01T10:53:24;2.90;99.40
8420;DHT22;4247;48.550;8.822;2023-03-01T10:56:01;3.00;99.90
8420;DHT22;4247;48.550;8.822;2023-03-01T10:58:29;3.00;99.30
8420;DHT22;4247;48.550;8.822;2023-03-01T11:00:58;3.00;98.90
8420;DHT22;4247;48.550;8.822;2023-03-01T11:03:27;3.00;99.30
8420;DHT22;4247;48.550;8.822;2023-03-01T11:05:59;3.00;99.20
8420;DHT22;4247;48.550;8.822;2023-03-01T11:08:44;3.00;99.00
8420;DHT22;4247;48.550;8.822;2023-03-01T11:11:21;3.10;99.50
8420;DHT22;4247;48.550;8.822;2023-03-01T11:13:53;3.10;99.30
8420;DHT22;4247;48.550;8.822;2023-03-01T11:16:29;3.20;99.60
8420;DHT22;4247;48.550;8.822;2023-03-01T11:18:59;3.20;99.10
8420;DHT22;4247;48.550;8.822;2023-03-01T11:21:30;3.20;99.40
8420;DHT22;4247;48.550;8.822;2023-03-01T11:24:00;3.20;98.70
8420;DHT22;4247;48.550;8.822;2023-03-01T11:26:28;3.20;98.90
8420;DHT22;4247;48.550;8.822;2023-03-01T11:29:03;3.30;98.70
8420;DHT22;4247;48.550;8.822;2023-03-01T11:31:31;3.30;99.10
8420;DHT22;4247;48.550;8.822;2023-03-01T11:34:03;3.30;98.80
8420;DHT22;4247;48.550;8.822;2023-03-01T11:36:35;3.40;98.70
8420;DHT22;4247;48.550;8.822;2023-03-01T11:39:17;3.40;98.40
8420;DHT22;4247;48.550;8.822;2023-03-01T11:41:49;3.40;98.50
8420;DHT22;4247;48.550;8.822;2023-03-01T11:44:21;3.50;98.80
8420;DHT22;4247;48.550;8.822;2023-03-01T11:47:08;3.50;98.40
8420;DHT22;4247;48.550;8.822;2023-03-01T11:49:54;3.50;98.10
8420;DHT22;4247;48.550;8.822;2023-03-01T11:52:34;3.50;98.30
8420;DHT22;4247;48.550;8.822;2023-03-01T11:55:17;3.50;98.00
8420;DHT22;4247;48.550;8.822;2023-03-01T11:57:56;3.60;98.50
8420;DHT22;4247;48.550;8.822;2023-03-01T12:00:40;3.60;98.30
8420;DHT22;4247;48.550;8.822;2023-03-01T12:03:27;3.60;98.20
8420;DHT22;4247;48.550;8.822;2023-03-01T12:06:23;3.70;98.10
8420;DHT22;4247;48.550;8.822;2023-03-01T12:09:03;3.70;98.00
8420;DHT22;4247;48.550;8.822;2023-03-01T12:11:41;3.80;97.90
8420;DHT22;4247;48.550;8.822;2023-03-01T12:14:26;3.80;98.30
8420;DHT22;4247;48.550;8.822;2023-03-01T12:20:13;3.90;97.60
8420;DHT22;4247;48.550;8.822;2023-03-01T12:22:55;4.00;98.40
8420;DHT22;4247;48.550;8.822;2023-03-01T12:25:29;4.10;97.80
8420;DHT22;4247;48.550;8.822;2023-03-01T12:28:18;4.10;97.40
8420;DHT22;4247;48.550;8.822;2023-03-01T12:31:01;4.20;97.60
8420;DHT22;4247;48.550;8.822;2023-03-01T12:33:39;4.20;97.30
8420;DHT22;4247;48.550;8.822;2023-03-01T12:36:22;4.20;97.10
8420;DHT22;4247;48.550;8.822;2023-03-01T12:39:03;4.30;97.00
8420;DHT22;4247;48.550;8.822;2023-03-01T12:41:47;4.40;97.10
8420;DHT22;4247;48.550;8.822;2023-03-01T12:44:28;4.40;97.30
8420;DHT22;4247;48.550;8.822;2023-03-01T12:47:07;4.50;97.00
8420;DHT22;4247;48.550;8.822;2023-03-01T12:49:40;4.50;97.00
8420;DHT22;4247;48.550;8.822;2023-03-01T12:52:11;4.60;96.80
8420;DHT22;4247;48.550;8.822;2023-03-01T12:54:41;4.60;96.80
8420;DHT22;4247;48.550;8.822;2023-03-01T12:57:14;4.60;96.90
8420;DHT22;4247;48.550;8.822;2023-03-01T12:59:49;4.70;96.50
8420;DHT22;4247;48.550;8.822;2023-03-01T13:02:24;4.80;96.80
8420;DHT22;4247;48.550;8.822;2023-03-01T13:05:10;4.70;96.10
8420;DHT22;4247;48.550;8.822;2023-03-01T13:07:52;4.80;96.50
8420;DHT22;4247;48.550;8.822;2023-03-01T13:10:26;4.80;96.20
8420;DHT22;4247;48.550;8.822;2023-03-01T13:13:13;4.80;96.20
8420;DHT22;4247;48.550;8.822;2023-03-01T13:15:40;4.80;96.10
8420;DHT22;4247;48.550;8.822;2023-03-01T13:18:28;4.80;96.10
8420;DHT22;4247;48.550;8.822;2023-03-01T13:20:56;4.80;95.80
8420;DHT22;4247;48.550;8.822;2023-03-01T13:23:26;4.80;96.10
8420;DHT22;4247;48.550;8.822;2023-03-01T13:26:05;4.90;95.60
8420;DHT22;4247;48.550;8.822;2023-03-01T13:28:56;4.90;96.00
8420;DHT22;4247;48.550;8.822;2023-03-01T13:34:54;5.00;96.10
8420;DHT22;4247;48.550;8.822;2023-03-01T13:37:38;5.00;95.40
8420;DHT22;4247;48.550;8.822;2023-03-01T13:40:56;5.00;95.30
8420;DHT22;4247;48.550;8.822;2023-03-01T13:43:32;5.10;95.30
8420;DHT22;4247;48.550;8.822;2023-03-01T13:46:02;5.10;95.50
8420;DHT22;4247;48.550;8.822;2023-03-01T13:48:34;5.10;95.10
8420;DHT22;4247;48.550;8.822;2023-03-01T13:51:02;5.20;95.30
8420;DHT22;4247;48.550;8.822;2023-03-01T13:53:31;5.30;95.30
8420;DHT22;4247;48.550;8.822;2023-03-01T13:56:02;5.30;95.10
8420;DHT22;4247;48.550;8.822;2023-03-01T13:58:30;5.30;95.00
8420;DHT22;4247;48.550;8.822;2023-03-01T14:01:02;5.30;95.00
8420;DHT22;4247;48.550;8.822;2023-03-01T14:03:30;5.30;94.70
8420;DHT22;4247;48.550;8.822;2023-03-01T14:06:01;5.30;94.80
8420;DHT22;4247;48.550;8.822;2023-03-01T14:08:30;5.30;94.70
8420;DHT22;4247;48.550;8.822;2023-03-01T14:11:20;5.40;94.70
8420;DHT22;4247;48.550;8.822;2023-03-01T14:14:11;5.40;94.50
8420;DHT22;4247;48.550;8.822;2023-03-01T14:16:49;5.40;94.30
8420;DHT22;4247;48.550;8.822;2023-03-01T14:19:20;5.40;94.40
8420;DHT22;4247;48.550;8.822;2023-03-01T14:21:59;5.40;94.40
8420;DHT22;4247;48.550;8.822;2023-03-01T14:24:29;5.50;94.50
8420;DHT22;4247;48.550;8.822;2023-03-01T14:26:58;5.50;94.30
8420;DHT22;4247;48.550;8.822;2023-03-01T14:29:34;5.60;94.50
8420;DHT22;4247;48.550;8.822;2023-03-01T14:32:11;5.60;94.40
8420;DHT22;4247;48.550;8.822;2023-03-01T14:34:43;5.70;94.60
8420;DHT22;4247;48.550;8.822;2023-03-01T14:37:10;5.70;94.50
8420;DHT22;4247;48.550;8.822;2023-03-01T14:39:37;5.70;94.00
8420;DHT22;4247;48.550;8.822;2023-03-01T14:42:04;5.70;94.50
8420;DHT22;4247;48.550;8.822;2023-03-01T14:44:31;5.70;94.00
8420;DHT22;4247;48.550;8.822;2023-03-01T14:47:02;5.80;94.20
8420;DHT22;4247;48.550;8.822;2023-03-01T14:49:32;5.70;94.20
8420;DHT22;4247;48.550;8.822;2023-03-01T14:52:02;5.70;94.30
8420;DHT22;4247;48.550;8.822;2023-03-01T14:54:35;5.70;94.20
8420;DHT22;4247;48.550;8.822;2023-03-01T14:57:03;5.70;94.40
8420;DHT22;4247;48.550;8.822;2023-03-01T14:59:30;5.70;94.20
8420;DHT22;4247;48.550;8.822;2023-03-01T15:01:59;5.70;94.30
8420;DHT22;4247;48.550;8.822;2023-03-01T15:04:27;5.70;94.30
8420;DHT22;4247;48.550;8.822;2023-03-01T15:06:57;5.70;94.30
8420;DHT22;4247;48.550;8.822;2023-03-01T15:09:32;5.70;94.20
8420;DHT22;4247;48.550;8.822;2023-03-01T15:12:00;5.70;94.20
8420;DHT22;4247;48.550;8.822;2023-03-01T15:14:29;5.80;94.60
8420;DHT22;4247;48.550;8.822;2023-03-01T15:17:04;5.80;94.50
8420;DHT22;4247;48.550;8.822;2023-03-01T15:19:31;5.80;94.00
8420;DHT22;4247;48.550;8.822;2023-03-01T15:21:59;5.80;93.90
8420;DHT22;4247;48.550;8.822;2023-03-01T15:24:37;5.80;94.00
8420;DHT22;4247;48.550;8.822;2023-03-01T15:27:04;5.80;94.30
8420;DHT22;4247;48.550;8.822;2023-03-01T15:29:33;5.70;94.40
8420;DHT22;4247;48.550;8.822;2023-03-01T15:32:25;5.70;94.60
8420;DHT22;4247;48.550;8.822;2023-03-01T15:34:51;5.70;94.80
8420;DHT22;4247;48.550;8.822;2023-03-01T15:37:39;5.70;94.60
8420;DHT22;4247;48.550;8.822;2023-03-01T15:40:18;5.70;94.70
8420;DHT22;4247;48.550;8.822;2023-03-01T15:42:46;5.70;94.30
8420;DHT22;4247;48.550;8.822;2023-03-01T15:45:22;5.60;94.50
8420;DHT22;4247;48.550;8.822;2023-03-01T15:47:50;5.60;94.80
8420;DHT22;4247;48.550;8.822;2023-03-01T15:50:21;5.60;94.70
8420;DHT22;4247;48.550;8.822;2023-03-01T15:52:50;5.50;94.60
8420;DHT22;4247;48.550;8.822;2023-03-01T15:55:19;5.50;94.60
8420;DHT22;4247;48.550;8.822;2023-03-01T15:57:46;5.50;94.90
8420;DHT22;4247;48.550;8.822;2023-03-01T16:00:14;5.40;94.80
8420;DHT22;4247;48.550;8.822;2023-03-01T16:02:42;5.40;94.90
8420;DHT22;4247;48.550;8.822;2023-03-01T16:05:18;5.40;95.00
8420;DHT22;4247;48.550;8.822;2023-03-01T16:07:45;5.40;95.10
8420;DHT22;4247;48.550;8.822;2023-03-01T16:10:13;5.30;95.10
8420;DHT22;4247;48.550;8.822;2023-03-01T16:12:40;5.30;95.30
8420;DHT22;4247;48.550;8.822;2023-03-01T16:15:15;5.30;95.60
8420;DHT22;4247;48.550;8.822;2023-03-01T16:17:42;5.30;95.60
8420;DHT22;4247;48.550;8.822;2023-03-01T16:20:10;5.20;95.70
8420;DHT22;4247;48.550;8.822;2023-03-01T16:22:37;5.10;95.60
8420;DHT22;4247;48.550;8.822;2023-03-01T16:25:04;5.10;95.70
8420;DHT22;4247;48.550;8.822;2023-03-01T16:27:33;5.00;95.70
8420;DHT22;4247;48.550;8.822;2023-03-01T16:30:00;5.00;95.80
8420;DHT22;4247;48.550;8.822;2023-03-01T16:32:27;4.90;95.80
8420;DHT22;4247;48.550;8.822;2023-03-01T16:34:53;4.90;96.00
8420;DHT22;4247;48.550;8.822;2023-03-01T16:37:20;4.80;95.90
8420;DHT22;4247;48.550;8.822;2023-03-01T16:39:47;4.80;96.00
8420;DHT22;4247;48.550;8.822;2023-03-01T16:42:17;4.80;96.20